Jekyll Island, Georgia
Current Conditions -  °F | °C
As of 10:35 PM on Sunday 21 Dec 2014 (Local Time) from KSSI Reporting Station
Overcast Overcast  
Wind Chill: 55°   Ceiling: 600
Heat Index: 55°   Visibility: 10mi
Dew Point: 54°   Wind: 9mph
Humidity: 96%   Direction: 350°N
Pressure: 30.05"   Gusts: NA
Location:  31.07°N, 81.41°W
Report Text: KSSI 220335Z AUTO 35008KT 10SM OVC006 13/12 A3005 RMK AO2 RAE22 CIG 004V009 PRESRR P0000 T01280122
Loading
Personal Weather Stations






























Interactive Weather Map New forecast layout! Learn more

10-Day Weather Forecast

Advertisements
Track Severe Weather on mobile